sensor_id;sensor_type;location;lat;lon;timestamp;temperature;humidity
22540;DHT22;11436;50.860;4.334;2022-09-09T00:04:36;16.00;99.90
22540;DHT22;11436;50.860;4.334;2022-09-09T00:10:28;16.00;99.90
22540;DHT22;11436;50.860;4.334;2022-09-09T00:13:08;16.00;99.90
22540;DHT22;11436;50.860;4.334;2022-09-09T00:18:15;16.00;99.90
22540;DHT22;11436;50.860;4.334;2022-09-09T00:21:16;15.90;99.90
22540;DHT22;11436;50.860;4.334;2022-09-09T00:23:54;16.00;99.90
22540;DHT22;11436;50.860;4.334;2022-09-09T00:26:34;16.00;99.90
22540;DHT22;11436;50.860;4.334;2022-09-09T00:31:33;16.10;99.90
22540;DHT22;11436;50.860;4.334;2022-09-09T00:34:21;16.00;99.90
22540;DHT22;11436;50.860;4.334;2022-09-09T00:36:50;16.10;99.90
22540;DHT22;11436;50.860;4.334;2022-09-09T00:39:32;16.10;99.90
22540;DHT22;11436;50.860;4.334;2022-09-09T00:44:51;16.20;99.90
22540;DHT22;11436;50.860;4.334;2022-09-09T00:50:10;16.30;99.90
22540;DHT22;11436;50.860;4.334;2022-09-09T00:52:52;16.30;99.90
22540;DHT22;11436;50.860;4.334;2022-09-09T00:55:27;16.30;99.90
22540;DHT22;11436;50.860;4.334;2022-09-09T00:57:54;16.30;99.90
22540;DHT22;11436;50.860;4.334;2022-09-09T01:00:29;16.30;99.90
22540;DHT22;11436;50.860;4.334;2022-09-09T01:03:20;16.30;99.90
22540;DHT22;11436;50.860;4.334;2022-09-09T01:11:58;16.40;99.90
22540;DHT22;11436;50.860;4.334;2022-09-09T01:17:30;16.30;99.90
22540;DHT22;11436;50.860;4.334;2022-09-09T01:28:26;16.20;99.90
22540;DHT22;11436;50.860;4.334;2022-09-09T01:30:55;16.10;99.90
22540;DHT22;11436;50.860;4.334;2022-09-09T01:33:21;16.10;99.90
22540;DHT22;11436;50.860;4.334;2022-09-09T01:38:52;16.20;99.90
22540;DHT22;11436;50.860;4.334;2022-09-09T01:41:19;16.10;99.90
22540;DHT22;11436;50.860;4.334;2022-09-09T01:43:44;16.10;99.90
22540;DHT22;11436;50.860;4.334;2022-09-09T01:46:12;16.10;99.90
22540;DHT22;11436;50.860;4.334;2022-09-09T01:48:37;16.00;99.90
22540;DHT22;11436;50.860;4.334;2022-09-09T01:51:04;16.10;99.90
22540;DHT22;11436;50.860;4.334;2022-09-09T01:53:30;16.10;99.90
22540;DHT22;11436;50.860;4.334;2022-09-09T01:56:12;16.10;99.90
22540;DHT22;11436;50.860;4.334;2022-09-09T01:58:57;16.10;99.90
22540;DHT22;11436;50.860;4.334;2022-09-09T02:01:50;16.10;99.90
22540;DHT22;11436;50.860;4.334;2022-09-09T02:07:00;16.10;99.90
22540;DHT22;11436;50.860;4.334;2022-09-09T02:09:29;16.00;99.90
22540;DHT22;11436;50.860;4.334;2022-09-09T02:12:11;16.10;99.90
22540;DHT22;11436;50.860;4.334;2022-09-09T02:14:49;16.10;99.90
22540;DHT22;11436;50.860;4.334;2022-09-09T02:17:22;16.20;99.90
22540;DHT22;11436;50.860;4.334;2022-09-09T02:20:03;16.20;99.90
22540;DHT22;11436;50.860;4.334;2022-09-09T02:22:32;16.20;99.90
22540;DHT22;11436;50.860;4.334;2022-09-09T02:25:00;16.20;99.90
22540;DHT22;11436;50.860;4.334;2022-09-09T02:27:26;16.20;99.90
22540;DHT22;11436;50.860;4.334;2022-09-09T02:29:54;16.20;99.90
22540;DHT22;11436;50.860;4.334;2022-09-09T02:32:23;16.10;99.90
22540;DHT22;11436;50.860;4.334;2022-09-09T02:34:57;16.10;99.90
22540;DHT22;11436;50.860;4.334;2022-09-09T02:37:29;16.10;99.90
22540;DHT22;11436;50.860;4.334;2022-09-09T02:39:57;16.10;99.90
22540;DHT22;11436;50.860;4.334;2022-09-09T02:42:23;16.20;99.90
22540;DHT22;11436;50.860;4.334;2022-09-09T02:44:49;16.10;99.90
22540;DHT22;11436;50.860;4.334;2022-09-09T02:55:24;16.10;99.90
22540;DHT22;11436;50.860;4.334;2022-09-09T02:57:52;16.00;99.90
22540;DHT22;11436;50.860;4.334;2022-09-09T03:00:24;16.10;99.90
22540;DHT22;11436;50.860;4.334;2022-09-09T03:02:50;16.10;99.90
22540;DHT22;11436;50.860;4.334;2022-09-09T03:05:16;16.10;99.90
22540;DHT22;11436;50.860;4.334;2022-09-09T03:07:42;16.10;99.90
22540;DHT22;11436;50.860;4.334;2022-09-09T03:10:08;16.20;99.90
22540;DHT22;11436;50.860;4.334;2022-09-09T03:12:36;16.20;99.90
22540;DHT22;11436;50.860;4.334;2022-09-09T03:15:01;16.20;99.90
22540;DHT22;11436;50.860;4.334;2022-09-09T03:17:27;16.20;99.90
22540;DHT22;11436;50.860;4.334;2022-09-09T03:19:53;16.20;99.90
22540;DHT22;11436;50.860;4.334;2022-09-09T03:22:20;16.10;99.90
22540;DHT22;11436;50.860;4.334;2022-09-09T03:24:48;16.20;99.90
22540;DHT22;11436;50.860;4.334;2022-09-09T03:27:14;16.10;99.90
22540;DHT22;11436;50.860;4.334;2022-09-09T03:29:40;16.10;99.90
22540;DHT22;11436;50.860;4.334;2022-09-09T03:32:05;16.10;99.90
22540;DHT22;11436;50.860;4.334;2022-09-09T03:34:31;16.00;99.90
22540;DHT22;11436;50.860;4.334;2022-09-09T03:36:57;16.10;99.90
22540;DHT22;11436;50.860;4.334;2022-09-09T03:39:23;16.10;99.90
22540;DHT22;11436;50.860;4.334;2022-09-09T03:41:49;16.10;99.90
22540;DHT22;11436;50.860;4.334;2022-09-09T03:44:15;16.00;99.90
22540;DHT22;11436;50.860;4.334;2022-09-09T03:46:41;16.00;99.90
22540;DHT22;11436;50.860;4.334;2022-09-09T03:49:06;16.00;99.90
22540;DHT22;11436;50.860;4.334;2022-09-09T03:51:32;16.00;99.90
22540;DHT22;11436;50.860;4.334;2022-09-09T03:54:02;16.00;99.90
22540;DHT22;11436;50.860;4.334;2022-09-09T03:56:30;16.10;99.90
22540;DHT22;11436;50.860;4.334;2022-09-09T03:58:57;16.10;99.90
22540;DHT22;11436;50.860;4.334;2022-09-09T04:01:23;16.10;99.90
22540;DHT22;11436;50.860;4.334;2022-09-09T04:03:48;16.10;99.90
22540;DHT22;11436;50.860;4.334;2022-09-09T04:06:15;16.20;99.90
22540;DHT22;11436;50.860;4.334;2022-09-09T04:08:42;16.10;99.90
22540;DHT22;11436;50.860;4.334;2022-09-09T04:11:09;16.10;99.90
22540;DHT22;11436;50.860;4.334;2022-09-09T04:13:36;16.10;99.90
22540;DHT22;11436;50.860;4.334;2022-09-09T04:16:06;16.00;99.90
22540;DHT22;11436;50.860;4.334;2022-09-09T04:18:33;16.00;99.90
22540;DHT22;11436;50.860;4.334;2022-09-09T04:20:59;15.90;99.90
22540;DHT22;11436;50.860;4.334;2022-09-09T04:23:27;16.00;99.90
22540;DHT22;11436;50.860;4.334;2022-09-09T04:25:56;15.90;99.90
22540;DHT22;11436;50.860;4.334;2022-09-09T04:28:24;15.80;99.90
22540;DHT22;11436;50.860;4.334;2022-09-09T04:30:50;15.80;99.90
22540;DHT22;11436;50.860;4.334;2022-09-09T04:33:16;15.80;99.90
22540;DHT22;11436;50.860;4.334;2022-09-09T04:35:47;15.90;99.90
22540;DHT22;11436;50.860;4.334;2022-09-09T04:38:13;15.90;99.90
22540;DHT22;11436;50.860;4.334;2022-09-09T04:40:41;15.90;99.90
22540;DHT22;11436;50.860;4.334;2022-09-09T04:43:08;15.80;99.90
22540;DHT22;11436;50.860;4.334;2022-09-09T04:45:35;15.90;99.90
22540;DHT22;11436;50.860;4.334;2022-09-09T04:48:01;15.90;99.90
22540;DHT22;11436;50.860;4.334;2022-09-09T04:50:28;15.80;99.90
22540;DHT22;11436;50.860;4.334;2022-09-09T04:52:54;15.80;99.90
22540;DHT22;11436;50.860;4.334;2022-09-09T04:55:20;15.90;99.90
22540;DHT22;11436;50.860;4.334;2022-09-09T04:57:47;15.80;99.90
22540;DHT22;11436;50.860;4.334;2022-09-09T05:00:14;15.90;99.90
22540;DHT22;11436;50.860;4.334;2022-09-09T05:02:40;15.90;99.90
22540;DHT22;11436;50.860;4.334;2022-09-09T05:05:07;15.90;99.90
22540;DHT22;11436;50.860;4.334;2022-09-09T05:07:32;15.90;99.90
22540;DHT22;11436;50.860;4.334;2022-09-09T05:09:58;16.00;99.90
22540;DHT22;11436;50.860;4.334;2022-09-09T05:12:24;15.90;99.90
22540;DHT22;11436;50.860;4.334;2022-09-09T05:14:51;15.90;99.90
22540;DHT22;11436;50.860;4.334;2022-09-09T05:17:17;15.90;99.90
22540;DHT22;11436;50.860;4.334;2022-09-09T05:19:43;15.90;99.90
22540;DHT22;11436;50.860;4.334;2022-09-09T05:22:10;15.90;99.90
22540;DHT22;11436;50.860;4.334;2022-09-09T05:24:37;15.90;99.90
22540;DHT22;11436;50.860;4.334;2022-09-09T05:27:04;16.00;99.90
22540;DHT22;11436;50.860;4.334;2022-09-09T05:29:32;16.00;99.90
22540;DHT22;11436;50.860;4.334;2022-09-09T05:31:59;16.00;99.90
22540;DHT22;11436;50.860;4.334;2022-09-09T05:34:25;16.00;99.90
22540;DHT22;11436;50.860;4.334;2022-09-09T05:36:51;16.10;99.90
22540;DHT22;11436;50.860;4.334;2022-09-09T05:39:18;16.10;99.90
22540;DHT22;11436;50.860;4.334;2022-09-09T05:41:44;16.00;99.90
22540;DHT22;11436;50.860;4.334;2022-09-09T05:44:09;16.10;99.90
22540;DHT22;11436;50.860;4.334;2022-09-09T05:46:35;16.00;99.90
22540;DHT22;11436;50.860;4.334;2022-09-09T05:49:02;16.00;99.90
22540;DHT22;11436;50.860;4.334;2022-09-09T05:51:29;16.00;99.90
22540;DHT22;11436;50.860;4.334;2022-09-09T05:53:58;16.10;99.90
22540;DHT22;11436;50.860;4.334;2022-09-09T05:56:26;16.00;99.90
22540;DHT22;11436;50.860;4.334;2022-09-09T05:58:53;16.00;99.90
22540;DHT22;11436;50.860;4.334;2022-09-09T06:01:20;16.00;99.90
22540;DHT22;11436;50.860;4.334;2022-09-09T06:03:47;16.00;99.90
22540;DHT22;11436;50.860;4.334;2022-09-09T06:06:18;16.00;99.90
22540;DHT22;11436;50.860;4.334;2022-09-09T06:08:50;16.00;99.90
22540;DHT22;11436;50.860;4.334;2022-09-09T06:13:43;16.20;99.90
22540;DHT22;11436;50.860;4.334;2022-09-09T06:16:14;16.40;99.90
22540;DHT22;11436;50.860;4.334;2022-09-09T06:18:41;16.40;99.90
22540;DHT22;11436;50.860;4.334;2022-09-09T06:21:15;16.50;99.90
22540;DHT22;11436;50.860;4.334;2022-09-09T06:23:41;16.40;99.90
22540;DHT22;11436;50.860;4.334;2022-09-09T06:28:39;16.50;99.90
22540;DHT22;11436;50.860;4.334;2022-09-09T06:31:10;16.50;99.90
22540;DHT22;11436;50.860;4.334;2022-09-09T06:33:40;16.50;99.90
22540;DHT22;11436;50.860;4.334;2022-09-09T06:36:14;16.50;99.90
22540;DHT22;11436;50.860;4.334;2022-09-09T06:38:41;16.50;99.90
22540;DHT22;11436;50.860;4.334;2022-09-09T06:41:08;16.60;99.90
22540;DHT22;11436;50.860;4.334;2022-09-09T06:43:35;16.50;99.90
22540;DHT22;11436;50.860;4.334;2022-09-09T06:46:03;16.60;99.90
22540;DHT22;11436;50.860;4.334;2022-09-09T06:48:29;16.50;99.90
22540;DHT22;11436;50.860;4.334;2022-09-09T06:53:35;16.60;99.90
22540;DHT22;11436;50.860;4.334;2022-09-09T06:56:02;16.70;99.90
22540;DHT22;11436;50.860;4.334;2022-09-09T06:58:41;16.70;99.90
22540;DHT22;11436;50.860;4.334;2022-09-09T07:01:13;16.70;99.90
22540;DHT22;11436;50.860;4.334;2022-09-09T07:03:41;16.70;99.90
22540;DHT22;11436;50.860;4.334;2022-09-09T07:06:09;16.80;99.90
22540;DHT22;11436;50.860;4.334;2022-09-09T07:08:40;16.80;99.90
22540;DHT22;11436;50.860;4.334;2022-09-09T07:11:07;16.90;99.90
22540;DHT22;11436;50.860;4.334;2022-09-09T07:13:34;16.90;99.90
22540;DHT22;11436;50.860;4.334;2022-09-09T07:16:19;17.10;99.90
22540;DHT22;11436;50.860;4.334;2022-09-09T07:18:46;17.10;99.90
22540;DHT22;11436;50.860;4.334;2022-09-09T07:21:13;17.00;99.90
22540;DHT22;11436;50.860;4.334;2022-09-09T07:23:40;17.00;99.90
22540;DHT22;11436;50.860;4.334;2022-09-09T07:26:11;17.00;99.90
22540;DHT22;11436;50.860;4.334;2022-09-09T07:28:37;17.00;99.90
22540;DHT22;11436;50.860;4.334;2022-09-09T07:31:04;17.00;99.90
22540;DHT22;11436;50.860;4.334;2022-09-09T07:33:32;17.00;99.90
22540;DHT22;11436;50.860;4.334;2022-09-09T07:36:09;17.10;99.90
22540;DHT22;11436;50.860;4.334;2022-09-09T07:38:46;17.10;99.90
22540;DHT22;11436;50.860;4.334;2022-09-09T07:41:22;17.10;99.90
22540;DHT22;11436;50.860;4.334;2022-09-09T07:43:49;16.90;99.90
22540;DHT22;11436;50.860;4.334;2022-09-09T07:46:17;16.80;99.90
22540;DHT22;11436;50.860;4.334;2022-09-09T07:48:49;16.70;99.90
22540;DHT22;11436;50.860;4.334;2022-09-09T07:51:18;16.60;99.90
22540;DHT22;11436;50.860;4.334;2022-09-09T07:53:51;16.60;99.90
22540;DHT22;11436;50.860;4.334;2022-09-09T07:56:18;16.70;99.90
22540;DHT22;11436;50.860;4.334;2022-09-09T07:58:45;16.60;99.90
22540;DHT22;11436;50.860;4.334;2022-09-09T08:03:46;16.70;99.90
22540;DHT22;11436;50.860;4.334;2022-09-09T08:06:13;17.00;99.90
22540;DHT22;11436;50.860;4.334;2022-09-09T08:08:39;17.00;99.90
22540;DHT22;11436;50.860;4.334;2022-09-09T08:11:14;17.00;99.90
22540;DHT22;11436;50.860;4.334;2022-09-09T08:13:41;16.90;99.90
22540;DHT22;11436;50.860;4.334;2022-09-09T08:16:16;16.90;99.90
22540;DHT22;11436;50.860;4.334;2022-09-09T08:18:42;17.10;99.90
22540;DHT22;11436;50.860;4.334;2022-09-09T08:21:12;17.10;99.90
22540;DHT22;11436;50.860;4.334;2022-09-09T08:23:41;17.00;99.90
22540;DHT22;11436;50.860;4.334;2022-09-09T08:26:11;17.00;99.90
22540;DHT22;11436;50.860;4.334;2022-09-09T08:28:39;17.10;99.90
22540;DHT22;11436;50.860;4.334;2022-09-09T08:31:16;17.10;99.90
22540;DHT22;11436;50.860;4.334;2022-09-09T08:33:42;17.20;99.90
22540;DHT22;11436;50.860;4.334;2022-09-09T08:36:16;17.10;99.90
22540;DHT22;11436;50.860;4.334;2022-09-09T08:38:43;17.10;99.90
22540;DHT22;11436;50.860;4.334;2022-09-09T08:44:31;17.00;99.90
22540;DHT22;11436;50.860;4.334;2022-09-09T08:47:21;16.90;99.90
22540;DHT22;11436;50.860;4.334;2022-09-09T08:52:48;16.70;99.90
22540;DHT22;11436;50.860;4.334;2022-09-09T08:58:22;16.80;99.90
22540;DHT22;11436;50.860;4.334;2022-09-09T09:11:51;17.00;99.90
22540;DHT22;11436;50.860;4.334;2022-09-09T09:14:22;17.10;99.90
22540;DHT22;11436;50.860;4.334;2022-09-09T09:16:58;17.00;99.90
22540;DHT22;11436;50.860;4.334;2022-09-09T09:19:24;17.00;99.90
22540;DHT22;11436;50.860;4.334;2022-09-09T09:22:06;17.10;99.90
22540;DHT22;11436;50.860;4.334;2022-09-09T09:27:47;17.10;99.90
22540;DHT22;11436;50.860;4.334;2022-09-09T09:32:49;16.90;99.90
22540;DHT22;11436;50.860;4.334;2022-09-09T09:35:16;16.80;99.90
22540;DHT22;11436;50.860;4.334;2022-09-09T09:37:42;16.80;99.90
22540;DHT22;11436;50.860;4.334;2022-09-09T09:40:14;16.80;99.90
22540;DHT22;11436;50.860;4.334;2022-09-09T09:42:55;16.70;99.90
22540;DHT22;11436;50.860;4.334;2022-09-09T09:45:42;16.70;99.90
22540;DHT22;11436;50.860;4.334;2022-09-09T09:48:12;16.70;99.90
22540;DHT22;11436;50.860;4.334;2022-09-09T09:50:58;16.80;99.90
22540;DHT22;11436;50.860;4.334;2022-09-09T09:53:32;16.80;99.90
22540;DHT22;11436;50.860;4.334;2022-09-09T09:56:04;16.80;99.90
22540;DHT22;11436;50.860;4.334;2022-09-09T09:58:33;16.80;99.90
22540;DHT22;11436;50.860;4.334;2022-09-09T10:01:00;16.90;99.90
22540;DHT22;11436;50.860;4.334;2022-09-09T10:03:33;16.90;99.90
22540;DHT22;11436;50.860;4.334;2022-09-09T10:06:06;16.90;99.90
22540;DHT22;11436;50.860;4.334;2022-09-09T10:08:43;16.90;99.90
22540;DHT22;11436;50.860;4.334;2022-09-09T10:14:04;17.10;99.90
22540;DHT22;11436;50.860;4.334;2022-09-09T10:19:32;17.30;99.90
22540;DHT22;11436;50.860;4.334;2022-09-09T10:35:29;17.90;99.90
22540;DHT22;11436;50.860;4.334;2022-09-09T10:46:20;18.60;99.90
22540;DHT22;11436;50.860;4.334;2022-09-09T10:49:12;18.60;99.90
22540;DHT22;11436;50.860;4.334;2022-09-09T10:57:09;19.00;99.90
22540;DHT22;11436;50.860;4.334;2022-09-09T10:59:49;18.90;99.90
22540;DHT22;11436;50.860;4.334;2022-09-09T11:07:44;18.60;99.90
22540;DHT22;11436;50.860;4.334;2022-09-09T11:12:51;18.40;99.90
22540;DHT22;11436;50.860;4.334;2022-09-09T11:15:26;18.40;99.90
22540;DHT22;11436;50.860;4.334;2022-09-09T11:17:56;18.40;99.90
22540;DHT22;11436;50.860;4.334;2022-09-09T11:20:26;18.40;99.90
22540;DHT22;11436;50.860;4.334;2022-09-09T11:23:11;18.50;99.90
22540;DHT22;11436;50.860;4.334;2022-09-09T11:25:41;18.30;99.90
22540;DHT22;11436;50.860;4.334;2022-09-09T11:28:43;18.40;99.90
22540;DHT22;11436;50.860;4.334;2022-09-09T11:37:35;18.40;99.90
22540;DHT22;11436;50.860;4.334;2022-09-09T11:39:57;18.40;99.90
22540;DHT22;11436;50.860;4.334;2022-09-09T11:42:26;18.40;99.90
22540;DHT22;11436;50.860;4.334;2022-09-09T11:44:53;18.40;99.90
22540;DHT22;11436;50.860;4.334;2022-09-09T11:47:26;18.40;99.90
22540;DHT22;11436;50.860;4.334;2022-09-09T11:50:29;18.50;99.90
22540;DHT22;11436;50.860;4.334;2022-09-09T11:53:18;18.50;99.90
22540;DHT22;11436;50.860;4.334;2022-09-09T11:55:59;18.40;99.90
22540;DHT22;11436;50.860;4.334;2022-09-09T11:58:27;18.60;99.90
22540;DHT22;11436;50.860;4.334;2022-09-09T12:00:58;18.50;99.90
22540;DHT22;11436;50.860;4.334;2022-09-09T12:03:45;18.30;99.90
22540;DHT22;11436;50.860;4.334;2022-09-09T12:06:19;18.30;99.90
22540;DHT22;11436;50.860;4.334;2022-09-09T12:08:53;18.30;99.90
22540;DHT22;11436;50.860;4.334;2022-09-09T12:11:25;18.40;99.90
22540;DHT22;11436;50.860;4.334;2022-09-09T12:13:56;18.30;99.90
22540;DHT22;11436;50.860;4.334;2022-09-09T12:16:37;18.30;99.90
22540;DHT22;11436;50.860;4.334;2022-09-09T12:19:14;18.30;99.90
22540;DHT22;11436;50.860;4.334;2022-09-09T12:27:27;18.30;99.90
22540;DHT22;11436;50.860;4.334;2022-09-09T12:30:12;18.40;99.90
22540;DHT22;11436;50.860;4.334;2022-09-09T12:32:40;18.50;99.90
22540;DHT22;11436;50.860;4.334;2022-09-09T12:35:20;18.50;99.90
22540;DHT22;11436;50.860;4.334;2022-09-09T12:37:54;18.50;99.90
22540;DHT22;11436;50.860;4.334;2022-09-09T12:40:27;18.50;99.90
22540;DHT22;11436;50.860;4.334;2022-09-09T12:42:54;18.60;99.90
22540;DHT22;11436;50.860;4.334;2022-09-09T12:45:26;18.80;99.90
22540;DHT22;11436;50.860;4.334;2022-09-09T12:48:09;19.00;99.90
22540;DHT22;11436;50.860;4.334;2022-09-09T12:50:48;19.00;99.90
22540;DHT22;11436;50.860;4.334;2022-09-09T12:53:30;19.00;99.90
22540;DHT22;11436;50.860;4.334;2022-09-09T12:55:58;18.90;99.90
22540;DHT22;11436;50.860;4.334;2022-09-09T12:58:25;18.90;99.90
22540;DHT22;11436;50.860;4.334;2022-09-09T13:00:55;18.90;99.90
22540;DHT22;11436;50.860;4.334;2022-09-09T13:03:22;19.00;99.90
22540;DHT22;11436;50.860;4.334;2022-09-09T13:05:49;18.90;99.90
22540;DHT22;11436;50.860;4.334;2022-09-09T13:08:16;18.90;99.90
22540;DHT22;11436;50.860;4.334;2022-09-09T13:10:49;19.00;99.90
22540;DHT22;11436;50.860;4.334;2022-09-09T13:13:27;19.10;99.90
22540;DHT22;11436;50.860;4.334;2022-09-09T13:15:57;19.30;99.90
22540;DHT22;11436;50.860;4.334;2022-09-09T13:18:30;19.30;99.90
22540;DHT22;11436;50.860;4.334;2022-09-09T13:20:58;19.50;99.90
22540;DHT22;11436;50.860;4.334;2022-09-09T13:23:31;19.40;99.90
22540;DHT22;11436;50.860;4.334;2022-09-09T13:28:49;19.40;99.90
22540;DHT22;11436;50.860;4.334;2022-09-09T13:31:24;19.70;99.90
22540;DHT22;11436;50.860;4.334;2022-09-09T13:33:53;19.70;99.90
22540;DHT22;11436;50.860;4.334;2022-09-09T13:36:31;19.90;99.90
22540;DHT22;11436;50.860;4.334;2022-09-09T13:38:59;20.10;99.90
22540;DHT22;11436;50.860;4.334;2022-09-09T13:41:32;20.10;99.90
22540;DHT22;11436;50.860;4.334;2022-09-09T13:44:04;20.00;99.90
22540;DHT22;11436;50.860;4.334;2022-09-09T13:54:10;20.80;99.90
22540;DHT22;11436;50.860;4.334;2022-09-09T13:56:43;20.60;99.90
22540;DHT22;11436;50.860;4.334;2022-09-09T13:59:14;20.30;99.90
22540;DHT22;11436;50.860;4.334;2022-09-09T14:01:41;20.30;99.90
22540;DHT22;11436;50.860;4.334;2022-09-09T14:04:07;20.30;99.90
22540;DHT22;11436;50.860;4.334;2022-09-09T14:06:37;20.10;99.90
22540;DHT22;11436;50.860;4.334;2022-09-09T14:09:05;20.20;99.90
22540;DHT22;11436;50.860;4.334;2022-09-09T14:11:31;20.50;99.90
22540;DHT22;11436;50.860;4.334;2022-09-09T14:13:57;20.50;99.90
22540;DHT22;11436;50.860;4.334;2022-09-09T14:16:23;20.40;99.90
22540;DHT22;11436;50.860;4.334;2022-09-09T14:18:49;20.30;99.90
22540;DHT22;11436;50.860;4.334;2022-09-09T14:21:15;20.20;99.90
22540;DHT22;11436;50.860;4.334;2022-09-09T14:23:41;20.10;99.90
22540;DHT22;11436;50.860;4.334;2022-09-09T14:26:08;20.00;99.90
22540;DHT22;11436;50.860;4.334;2022-09-09T14:28:35;19.90;99.90
22540;DHT22;11436;50.860;4.334;2022-09-09T14:31:03;20.00;99.90
22540;DHT22;11436;50.860;4.334;2022-09-09T14:33:29;20.10;99.90
22540;DHT22;11436;50.860;4.334;2022-09-09T14:36:02;20.50;99.90
22540;DHT22;11436;50.860;4.334;2022-09-09T14:38:30;20.60;99.90
22540;DHT22;11436;50.860;4.334;2022-09-09T14:40:56;20.70;99.90
22540;DHT22;11436;50.860;4.334;2022-09-09T14:43:24;20.90;99.90
22540;DHT22;11436;50.860;4.334;2022-09-09T14:45:49;20.80;99.90
22540;DHT22;11436;50.860;4.334;2022-09-09T14:48:17;20.80;99.90
22540;DHT22;11436;50.860;4.334;2022-09-09T14:50:43;21.00;99.90
22540;DHT22;11436;50.860;4.334;2022-09-09T14:53:09;21.10;99.90
22540;DHT22;11436;50.860;4.334;2022-09-09T14:55:36;21.00;99.90
22540;DHT22;11436;50.860;4.334;2022-09-09T14:58:02;21.00;99.90
22540;DHT22;11436;50.860;4.334;2022-09-09T15:00:28;21.20;99.90
22540;DHT22;11436;50.860;4.334;2022-09-09T15:02:54;21.00;99.90
22540;DHT22;11436;50.860;4.334;2022-09-09T15:05:20;20.90;99.90
22540;DHT22;11436;50.860;4.334;2022-09-09T15:07:47;20.90;99.90
22540;DHT22;11436;50.860;4.334;2022-09-09T15:10:14;20.80;99.90
22540;DHT22;11436;50.860;4.334;2022-09-09T15:12:40;20.90;99.90
22540;DHT22;11436;50.860;4.334;2022-09-09T15:15:07;20.80;99.90
22540;DHT22;11436;50.860;4.334;2022-09-09T15:17:34;20.70;99.90
22540;DHT22;11436;50.860;4.334;2022-09-09T15:20:01;20.60;99.90
22540;DHT22;11436;50.860;4.334;2022-09-09T15:22:27;20.70;99.90
22540;DHT22;11436;50.860;4.334;2022-09-09T15:24:53;21.00;99.90
22540;DHT22;11436;50.860;4.334;2022-09-09T15:27:18;20.60;99.90
22540;DHT22;11436;50.860;4.334;2022-09-09T15:29:44;20.50;99.90
22540;DHT22;11436;50.860;4.334;2022-09-09T15:32:10;20.40;99.90
22540;DHT22;11436;50.860;4.334;2022-09-09T15:34:36;20.40;99.90
22540;DHT22;11436;50.860;4.334;2022-09-09T15:37:02;20.40;99.90
22540;DHT22;11436;50.860;4.334;2022-09-09T15:39:28;20.20;99.90
22540;DHT22;11436;50.860;4.334;2022-09-09T15:41:54;20.20;99.90
22540;DHT22;11436;50.860;4.334;2022-09-09T15:44:20;20.10;99.90
22540;DHT22;11436;50.860;4.334;2022-09-09T15:46:49;20.10;99.90
22540;DHT22;11436;50.860;4.334;2022-09-09T15:49:18;20.30;99.90
22540;DHT22;11436;50.860;4.334;2022-09-09T15:51:46;20.30;99.90
22540;DHT22;11436;50.860;4.334;2022-09-09T15:54:15;20.20;99.90
22540;DHT22;11436;50.860;4.334;2022-09-09T15:56:44;20.20;99.90
22540;DHT22;11436;50.860;4.334;2022-09-09T15:59:10;20.10;99.90
22540;DHT22;11436;50.860;4.334;2022-09-09T16:01:37;20.30;99.90
22540;DHT22;11436;50.860;4.334;2022-09-09T16:04:05;20.30;99.90
22540;DHT22;11436;50.860;4.334;2022-09-09T16:06:31;20.30;99.90
22540;DHT22;11436;50.860;4.334;2022-09-09T16:08:59;20.20;99.90
22540;DHT22;11436;50.860;4.334;2022-09-09T16:11:30;20.00;99.90
22540;DHT22;11436;50.860;4.334;2022-09-09T16:13:57;19.90;99.90
22540;DHT22;11436;50.860;4.334;2022-09-09T16:16:26;19.90;99.90
22540;DHT22;11436;50.860;4.334;2022-09-09T16:18:54;19.80;99.90
22540;DHT22;11436;50.860;4.334;2022-09-09T16:21:35;19.70;99.90
22540;DHT22;11436;50.860;4.334;2022-09-09T16:24:02;19.70;99.90
22540;DHT22;11436;50.860;4.334;2022-09-09T16:26:34;19.50;99.90
22540;DHT22;11436;50.860;4.334;2022-09-09T16:29:01;19.10;99.90
22540;DHT22;11436;50.860;4.334;2022-09-09T16:31:29;18.80;99.90
22540;DHT22;11436;50.860;4.334;2022-09-09T16:33:59;18.50;99.90
22540;DHT22;11436;50.860;4.334;2022-09-09T16:36:27;18.30;99.90
22540;DHT22;11436;50.860;4.334;2022-09-09T16:38:55;18.10;99.90
22540;DHT22;11436;50.860;4.334;2022-09-09T16:41:23;18.10;99.90
22540;DHT22;11436;50.860;4.334;2022-09-09T16:43:57;18.10;99.90
22540;DHT22;11436;50.860;4.334;2022-09-09T16:46:26;18.20;99.90
22540;DHT22;11436;50.860;4.334;2022-09-09T16:48:53;18.40;99.90
22540;DHT22;11436;50.860;4.334;2022-09-09T16:51:37;18.50;99.90
22540;DHT22;11436;50.860;4.334;2022-09-09T16:54:05;18.40;99.90
22540;DHT22;11436;50.860;4.334;2022-09-09T16:56:40;18.40;99.90
22540;DHT22;11436;50.860;4.334;2022-09-09T16:59:12;18.50;99.90
22540;DHT22;11436;50.860;4.334;2022-09-09T17:01:40;18.60;99.90
22540;DHT22;11436;50.860;4.334;2022-09-09T17:04:09;18.70;99.90
22540;DHT22;11436;50.860;4.334;2022-09-09T17:06:36;18.60;99.90
22540;DHT22;11436;50.860;4.334;2022-09-09T17:09:07;18.90;99.90
22540;DHT22;11436;50.860;4.334;2022-09-09T17:11:34;18.90;99.90
22540;DHT22;11436;50.860;4.334;2022-09-09T17:14:00;19.10;99.90
22540;DHT22;11436;50.860;4.334;2022-09-09T17:16:29;19.10;99.90
22540;DHT22;11436;50.860;4.334;2022-09-09T17:18:56;19.10;99.90
22540;DHT22;11436;50.860;4.334;2022-09-09T17:21:24;19.00;99.90
22540;DHT22;11436;50.860;4.334;2022-09-09T17:23:51;18.80;99.90
22540;DHT22;11436;50.860;4.334;2022-09-09T17:26:19;18.60;99.90
22540;DHT22;11436;50.860;4.334;2022-09-09T17:28:45;18.50;99.90
22540;DHT22;11436;50.860;4.334;2022-09-09T17:31:13;18.50;99.90
22540;DHT22;11436;50.860;4.334;2022-09-09T17:33:44;18.40;99.90
22540;DHT22;11436;50.860;4.334;2022-09-09T17:36:24;18.40;99.90
22540;DHT22;11436;50.860;4.334;2022-09-09T17:38:51;18.50;99.90
22540;DHT22;11436;50.860;4.334;2022-09-09T17:41:25;18.50;99.90
22540;DHT22;11436;50.860;4.334;2022-09-09T17:43:51;18.40;99.90
22540;DHT22;11436;50.860;4.334;2022-09-09T17:46:20;18.40;99.90
22540;DHT22;11436;50.860;4.334;2022-09-09T17:48:48;18.40;99.90
22540;DHT22;11436;50.860;4.334;2022-09-09T17:51:17;18.30;99.90
22540;DHT22;11436;50.860;4.334;2022-09-09T17:53:47;18.30;99.90
22540;DHT22;11436;50.860;4.334;2022-09-09T17:56:16;18.20;99.90
22540;DHT22;11436;50.860;4.334;2022-09-09T17:58:42;18.20;99.90
22540;DHT22;11436;50.860;4.334;2022-09-09T18:01:11;18.20;99.90
22540;DHT22;11436;50.860;4.334;2022-09-09T18:03:42;18.20;99.90
22540;DHT22;11436;50.860;4.334;2022-09-09T18:06:11;18.20;99.90
22540;DHT22;11436;50.860;4.334;2022-09-09T18:08:38;18.10;99.90
22540;DHT22;11436;50.860;4.334;2022-09-09T18:11:06;18.10;99.90
22540;DHT22;11436;50.860;4.334;2022-09-09T18:13:32;18.10;99.90
22540;DHT22;11436;50.860;4.334;2022-09-09T18:16:00;18.00;99.90